If you wish to contribute or participate in the discussions about articles you are invited to join SKYbrary as a registered user

 Actions

Alfonso López Pumarejo Airport

From SKYbrary Wiki

SKVP
Airport
ICAO: SKVP – IATA: VUP
Summary
Name Alfonso López Pumarejo Airport
Region South America and Caribbean
Territory Colombia CO.gif
Location Valledupar, Cesar department
Serving Valledupar
Elevation 147.828 m
485 ft147.828 m
Coordinates 10° 26' 3.18" N, 73° 14' 58.65" W
Runways
Designator Length Width Surface ROPS
2/20 2100 m6,889.764 ft
30 m98.425 ft
ASP yes/yes


METAR
Observation SKVP 121700Z 07011KT 9999 FEW020 34/21 A2990
Station Valledupar / Alfonso Lopez
Date/Time 12 December 2018 17:00:00
Wind direction 70°
Wind speed 11 kts
Lowest cloud amount few clouds
Temperature 34°C
Dew point 21°C
Humidity 46%
QNH hPa
Weather condition n/a

Alfonso López Pumarejo Airport serves as air terminal for the city of Valledupar, Colombia and as a small Colombian Air Force and Colombian Police air base.

Climatology

Tropical savanna climate (Köppen climate classification Aw)

Maps

Terrain

Loading map...

Airport Layout

Loading map...


Accidents & Serious Incidents at or in vicinity of SKVP

None on SKYbrary